Eagle Rock, MO (65641)

1:51 AM CDT on May 26, 2015 (GMT -0500)
7 Sunview Ln | | Change Station
CLOSE
Current Station
Personal Weather Station
Location: Holiday Island, AR
Elevation: 1115 ft
Nearby Weather Stations

Elev 1115 ft 36.49 °N, 93.72 °W | Updated 4 minutes ago

Rain
Rain
62.7 °F
Feels Like 62.7 °F
N
2.0
Wind Variable Wind from WSW
Gusts 4.0 mph

Today
High -- | Low -- °F
--% Chance of Precip.
Yesterday
High -- | Low -- °F
Precip. -- in
6:00 AM 8:23 PM
First Quarter, 55% visible
Pressure 29.82 in
Visibility 10.0 miles
Clouds Few 6000 ft
Few 7000 ft
Overcast 10000 ft
Dew Point 58 °F
Humidity 85%
Rainfall 0.00 in
Snow Depth Not available.
UV 0 out of 12
Pollen 8.10 out of 12
Air Quality Not available.
Flu Activity Sporadic
METAR KFWB 260635Z AUTO 13005KT 10SM FEW060 FEW070 OVC100 17/15 A2982 RMK AO2

More Conditions Fewer Conditions

Pressure 29.82 in
Visibility 10.0 miles
Clouds Few 6000 ft
Few 7000 ft
Overcast 10000 ft
Dew Point 58 °F
Humidity 85%
Rainfall 0.00 in
Snow Depth Not available.
UV 0 out of 12
Pollen 8.10 out of 12
Air Quality Not available.
Flu Activity Sporadic
METAR KFWB 260635Z AUTO 13005KT 10SM FEW060 FEW070 OVC100 17/15 A2982 RMK AO2

More Conditions Fewer Conditions

10-Day Weather Forecast

Almanac

Astronomy

May. 26, 2015 Rise Set
Actual Time
Civil Twilight
Nautical Twilight
Astronomical Twilight
Moon
Length of Visible Light
Length of Day
Tomorrow will be .
, % of the Moon is Illuminated

Today's Extremes

State Highs State Lows

Community

WunderPhotos

Upload Photos

1,824,294 photos uploaded!

WunderBlogs® & News

Nearby

Air Quality

  Air Quality AQ Index Pollutant
Not available.

Snow Depth

Station Depth Elevation

Earthquake Activity

City Distance Mag. Time & Date
Minimum magnitude displayed is 2.5.

Coastal Water Temperatures

Place Temperature

Stations

Nearby Weather Stations

Station Location Temp. Windchill Dew Point Humidity Wind Precip. Elev Updated Type